createdAt,value
2022-12-05T00:02:43.181Z,5.32
2022-12-05T00:05:45.949Z,5.33
2022-12-05T00:08:49.335Z,5.23
2022-12-05T00:11:52.035Z,5.26
2022-12-05T00:14:54.547Z,5.27
2022-12-05T00:17:57.366Z,5.28
2022-12-05T00:20:59.856Z,5.29
2022-12-05T00:24:04.616Z,5.26
2022-12-05T00:27:07.153Z,5.29
2022-12-05T00:30:10.151Z,5.30
2022-12-05T00:33:12.564Z,5.29
2022-12-05T00:36:26.833Z,5.23
2022-12-05T00:39:29.392Z,5.21
2022-12-05T00:42:32.236Z,5.26
2022-12-05T00:45:34.758Z,5.22
2022-12-05T00:48:37.855Z,5.23
2022-12-05T00:51:42.894Z,5.21
2022-12-05T00:54:45.755Z,5.13
2022-12-05T00:57:48.198Z,5.05
2022-12-05T01:00:50.985Z,5.11
2022-12-05T01:03:55.930Z,5.06
2022-12-05T01:06:59.100Z,4.97
2022-12-05T01:10:01.863Z,4.90
2022-12-05T01:13:06.754Z,4.92
2022-12-05T01:16:26.516Z,4.94
2022-12-05T01:19:31.646Z,4.91
2022-12-05T01:22:34.135Z,4.88
2022-12-05T01:25:40.556Z,4.76
2022-12-05T01:28:43.852Z,4.74
2022-12-05T01:31:46.796Z,4.74
2022-12-05T01:34:49.302Z,4.71
2022-12-05T01:37:52.227Z,4.71
2022-12-05T01:41:05.598Z,4.80
2022-12-05T01:44:28.110Z,4.79
2022-12-05T01:47:34.726Z,4.71
2022-12-05T01:50:37.989Z,4.70
2022-12-05T01:53:40.525Z,4.73
2022-12-05T01:57:05.541Z,4.75
2022-12-05T02:00:18.303Z,4.75
2022-12-05T02:03:22.109Z,4.82
2022-12-05T02:06:26.652Z,4.86
2022-12-05T02:09:29.425Z,4.82
2022-12-05T02:12:32.112Z,4.73
2022-12-05T02:15:45.543Z,4.68
2022-12-05T02:19:12.409Z,4.75
2022-12-05T02:22:33.611Z,4.81
2022-12-05T02:26:00.542Z,4.81
2022-12-05T02:29:34.792Z,4.81
2022-12-05T02:33:05.351Z,4.79
2022-12-05T02:36:10.794Z,4.65
2022-12-05T02:39:48.068Z,4.70
2022-12-05T02:42:59.106Z,4.79
2022-12-05T02:46:09.969Z,4.69
2022-12-05T02:49:18.931Z,4.64
2022-12-05T02:52:23.138Z,4.69
2022-12-05T02:55:29.654Z,4.66
2022-12-05T02:58:36.152Z,4.65
2022-12-05T03:01:39.732Z,4.86
2022-12-05T03:04:42.339Z,4.67
2022-12-05T03:07:48.985Z,4.66
2022-12-05T03:10:53.874Z,4.72
2022-12-05T03:14:02.976Z,4.63
2022-12-05T03:17:13.511Z,4.61
2022-12-05T03:20:28.354Z,4.64
2022-12-05T03:23:37.767Z,4.66
2022-12-05T03:26:46.507Z,4.71
2022-12-05T03:29:57.176Z,4.72
2022-12-05T03:33:11.214Z,4.70
2022-12-05T03:36:23.022Z,4.76
2022-12-05T03:39:30.497Z,4.71
2022-12-05T03:42:37.092Z,4.75
2022-12-05T03:45:48.951Z,4.70
2022-12-05T03:48:57.992Z,4.71
2022-12-05T03:52:04.329Z,4.67
2022-12-05T03:55:10.005Z,4.74
2022-12-05T03:58:22.918Z,4.72
2022-12-05T04:01:28.688Z,4.65
2022-12-05T04:04:37.051Z,4.88
2022-12-05T04:07:42.324Z,4.80
2022-12-05T04:10:50.673Z,4.73
2022-12-05T04:13:59.731Z,4.75
2022-12-05T04:17:06.609Z,4.77
2022-12-05T04:20:35.275Z,4.71
2022-12-05T04:23:38.180Z,4.66
2022-12-05T04:26:46.907Z,4.72
2022-12-05T04:29:58.816Z,4.73
2022-12-05T04:33:07.345Z,4.73
2022-12-05T04:36:16.590Z,4.63
2022-12-05T04:39:39.874Z,4.67
2022-12-05T04:42:45.298Z,4.78
2022-12-05T04:45:50.247Z,4.82
2022-12-05T04:48:58.550Z,4.75
2022-12-05T04:52:07.625Z,4.79
2022-12-05T04:55:15.419Z,4.71
2022-12-05T04:58:24.591Z,4.73
2022-12-05T05:01:37.418Z,4.70
2022-12-05T05:04:47.475Z,4.76
2022-12-05T05:07:52.951Z,4.75
2022-12-05T05:11:42.698Z,4.72
2022-12-05T05:14:45.511Z,4.72
2022-12-05T05:17:48.014Z,4.66
2022-12-05T05:20:50.949Z,4.71
2022-12-05T05:23:54.307Z,4.68
2022-12-05T05:26:57.572Z,4.70
2022-12-05T05:30:00.484Z,4.70
2022-12-05T05:33:03.444Z,4.66
2022-12-05T05:36:11.293Z,4.72
2022-12-05T05:39:15.440Z,4.78
2022-12-05T05:42:18.066Z,4.86
2022-12-05T05:45:20.919Z,4.81
2022-12-05T05:48:23.874Z,4.76
2022-12-05T05:51:29.277Z,4.74
2022-12-05T05:54:31.794Z,4.76
2022-12-05T05:57:36.073Z,4.74
2022-12-05T06:00:38.545Z,4.71
2022-12-05T06:03:41.951Z,4.80
2022-12-05T06:06:44.582Z,4.88
2022-12-05T06:09:47.456Z,4.83
2022-12-05T06:12:50.058Z,4.86
2022-12-05T06:15:52.805Z,4.94
2022-12-05T06:18:55.423Z,5.00
2022-12-05T06:21:58.098Z,4.91
2022-12-05T06:25:00.582Z,4.92
2022-12-05T06:28:03.394Z,4.98
2022-12-05T06:31:16.365Z,5.01
2022-12-05T06:34:21.876Z,4.94
2022-12-05T06:37:24.381Z,4.88
2022-12-05T06:40:27.321Z,5.02
2022-12-05T06:43:29.718Z,4.99
2022-12-05T06:46:33.553Z,5.10
2022-12-05T06:49:38.010Z,5.05
2022-12-05T06:52:41.081Z,5.07
2022-12-05T06:55:43.611Z,5.17
2022-12-05T06:58:49.852Z,5.14
2022-12-05T07:01:52.529Z,5.15
2022-12-05T07:04:55.224Z,5.17
2022-12-05T07:07:57.737Z,5.26
2022-12-05T07:11:00.548Z,5.18
2022-12-05T07:14:10.441Z,5.11
2022-12-05T07:17:22.206Z,5.24
2022-12-05T07:20:24.643Z,5.32
2022-12-05T07:23:27.680Z,5.31
2022-12-05T07:26:30.176Z,5.30
2022-12-05T07:29:32.956Z,5.19
2022-12-05T07:32:35.539Z,5.39
2022-12-05T07:35:38.166Z,5.36
2022-12-05T07:38:41.863Z,5.35
2022-12-05T07:41:44.613Z,5.40
2022-12-05T07:44:50.070Z,5.40
2022-12-05T07:47:53.219Z,5.55
2022-12-05T07:51:01.733Z,5.53
2022-12-05T07:54:04.479Z,5.61
2022-12-05T07:57:06.969Z,5.66
2022-12-05T08:00:10.484Z,5.75
2022-12-05T08:03:15.213Z,5.82
2022-12-05T08:06:21.332Z,5.91
2022-12-05T08:09:23.891Z,5.89
2022-12-05T08:12:26.694Z,5.83
2022-12-05T08:15:29.100Z,5.92
2022-12-05T08:18:32.202Z,5.94
2022-12-05T08:21:35.318Z,6.07
2022-12-05T08:24:38.222Z,6.01
2022-12-05T08:27:40.783Z,5.97
2022-12-05T08:30:44.011Z,5.97
2022-12-05T08:33:46.629Z,6.08
2022-12-05T08:36:49.412Z,6.12
2022-12-05T08:39:52.173Z,6.18
2022-12-05T08:42:54.862Z,6.19
2022-12-05T08:45:58.272Z,6.11
2022-12-05T08:49:01.346Z,6.14
2022-12-05T08:52:04.018Z,5.96
2022-12-05T08:55:07.455Z,6.05
2022-12-05T08:58:09.932Z,6.12
2022-12-05T09:01:15.494Z,6.06
2022-12-05T09:04:18.132Z,6.07
2022-12-05T09:07:20.902Z,6.08
2022-12-05T09:10:24.441Z,6.19
2022-12-05T09:13:27.162Z,6.14
2022-12-05T09:16:37.864Z,6.23
2022-12-05T09:19:42.332Z,6.34
2022-12-05T09:22:45.243Z,6.28
2022-12-05T09:25:56.224Z,6.38
2022-12-05T09:28:58.800Z,6.65
2022-12-05T09:32:01.723Z,6.65
2022-12-05T09:35:04.512Z,6.64
2022-12-05T09:38:07.227Z,6.76
2022-12-05T09:41:45.983Z,6.96
2022-12-05T09:45:15.150Z,7.02
2022-12-05T09:48:21.517Z,6.95
2022-12-05T09:51:26.264Z,6.95
2022-12-05T09:54:30.260Z,6.81
2022-12-05T09:57:40.493Z,6.75
2022-12-05T10:00:43.201Z,6.71
2022-12-05T10:04:02.024Z,6.73
2022-12-05T10:07:41.702Z,6.68
2022-12-05T10:11:02.228Z,6.80
2022-12-05T10:14:27.026Z,6.86
2022-12-05T10:17:38.958Z,6.72
2022-12-05T10:21:30.013Z,6.89
2022-12-05T10:24:40.502Z,6.88
2022-12-05T10:27:54.796Z,7.03
2022-12-05T10:31:02.585Z,6.98
2022-12-05T10:34:15.531Z,7.06
2022-12-05T10:37:23.643Z,7.11
2022-12-05T10:40:36.516Z,7.20
2022-12-05T10:43:44.879Z,7.45
2022-12-05T10:46:48.547Z,7.52
2022-12-05T10:49:54.264Z,7.55
2022-12-05T10:52:59.206Z,7.61
2022-12-05T10:56:30.836Z,7.66
2022-12-05T10:59:45.367Z,7.74
2022-12-05T11:02:49.827Z,7.96
2022-12-05T11:05:55.500Z,7.92
2022-12-05T11:09:17.284Z,7.86
2022-12-05T11:12:29.169Z,7.69
2022-12-05T11:15:44.997Z,7.56
2022-12-05T11:18:49.367Z,7.62
2022-12-05T11:21:52.921Z,7.68
2022-12-05T11:24:55.599Z,7.66
2022-12-05T11:28:01.900Z,7.52
2022-12-05T11:31:22.956Z,7.56
2022-12-05T11:34:33.040Z,7.40
2022-12-05T11:37:38.991Z,7.27
2022-12-05T11:40:53.101Z,7.29
2022-12-05T11:44:13.606Z,7.48
2022-12-05T11:47:39.725Z,7.53
2022-12-05T11:51:05.053Z,7.45
2022-12-05T11:54:41.712Z,7.33
2022-12-05T11:58:00.838Z,7.55
2022-12-05T12:01:35.059Z,7.58
2022-12-05T12:04:56.948Z,7.42
2022-12-05T12:08:30.285Z,7.33
2022-12-05T12:11:43.014Z,7.30
2022-12-05T12:14:50.880Z,7.18
2022-12-05T12:18:10.838Z,7.00
2022-12-05T12:21:20.389Z,7.13
2022-12-05T12:24:28.763Z,7.13
2022-12-05T12:27:50.366Z,7.18
2022-12-05T12:30:58.993Z,7.22
2022-12-05T12:34:10.480Z,7.18
2022-12-05T12:37:35.138Z,7.19
2022-12-05T12:40:58.323Z,7.34
2022-12-05T12:44:02.163Z,7.27
2022-12-05T12:47:16.978Z,7.21
2022-12-05T12:50:23.853Z,7.12
2022-12-05T12:53:55.682Z,7.10
2022-12-05T12:57:13.497Z,7.08
2022-12-05T13:01:01.003Z,7.15
2022-12-05T13:04:23.798Z,7.20
2022-12-05T13:07:39.192Z,7.18
2022-12-05T13:10:45.491Z,7.00
2022-12-05T13:13:59.386Z,6.95
2022-12-05T13:17:04.561Z,7.04
2022-12-05T13:20:16.335Z,7.15
2022-12-05T13:23:23.252Z,6.97
2022-12-05T13:26:25.747Z,6.86
2022-12-05T13:29:36.381Z,6.88
2022-12-05T13:32:43.846Z,6.88
2022-12-05T13:36:05.587Z,6.91
2022-12-05T13:39:37.821Z,6.87
2022-12-05T13:42:41.431Z,6.94
2022-12-05T13:46:06.942Z,6.97
2022-12-05T13:49:25.926Z,7.05
2022-12-05T13:52:31.383Z,7.00
2022-12-05T13:55:40.059Z,6.86
2022-12-05T13:58:50.695Z,6.85
2022-12-05T14:01:56.243Z,6.92
2022-12-05T14:04:59.326Z,6.90
2022-12-05T14:08:24.633Z,6.89
2022-12-05T14:11:27.419Z,6.94
2022-12-05T14:15:04.149Z,6.77
2022-12-05T14:18:29.694Z,6.81
2022-12-05T14:21:41.535Z,6.71
2022-12-05T14:24:57.205Z,6.83
2022-12-05T14:28:33.353Z,6.85
2022-12-05T14:31:51.842Z,6.79
2022-12-05T14:35:14.906Z,6.69
2022-12-05T14:38:28.554Z,6.72
2022-12-05T14:41:36.034Z,6.77
2022-12-05T14:44:46.786Z,6.72
2022-12-05T14:47:53.797Z,6.71
2022-12-05T14:50:58.925Z,6.77
2022-12-05T14:54:16.705Z,6.75
2022-12-05T14:57:20.821Z,6.88
2022-12-05T15:00:23.843Z,6.73
2022-12-05T15:03:38.042Z,6.71
2022-12-05T15:06:55.844Z,6.61
2022-12-05T15:10:06.052Z,6.54
2022-12-05T15:13:15.216Z,6.61
2022-12-05T15:16:22.541Z,6.61
2022-12-05T15:19:41.875Z,6.56
2022-12-05T15:22:44.813Z,6.61
2022-12-05T15:25:57.075Z,6.72
2022-12-05T15:29:33.830Z,6.72
2022-12-05T15:32:37.140Z,6.79
2022-12-05T15:35:41.390Z,6.69
2022-12-05T15:38:45.180Z,6.63
2022-12-05T15:41:51.677Z,6.70
2022-12-05T15:45:15.937Z,6.65
2022-12-05T15:48:22.998Z,6.71
2022-12-05T15:51:37.656Z,6.89
2022-12-05T15:54:42.422Z,6.76
2022-12-05T15:57:51.131Z,6.66
2022-12-05T16:01:07.134Z,6.66
2022-12-05T16:04:27.787Z,6.65
2022-12-05T16:07:35.461Z,6.71
2022-12-05T16:10:39.805Z,6.77
2022-12-05T16:13:48.144Z,6.77
2022-12-05T16:16:55.447Z,6.70
2022-12-05T16:20:34.409Z,6.70
2022-12-05T16:23:37.721Z,6.67
2022-12-05T16:26:41.097Z,6.70
2022-12-05T16:29:45.255Z,6.62
2022-12-05T16:32:49.938Z,6.62
2022-12-05T16:35:53.156Z,6.68
2022-12-05T16:39:07.097Z,6.67
2022-12-05T16:42:26.127Z,6.66
2022-12-05T16:45:41.403Z,6.71
2022-12-05T16:48:49.984Z,6.73
2022-12-05T16:52:16.728Z,6.74
2022-12-05T16:55:19.446Z,6.76
2022-12-05T16:58:25.109Z,6.74
2022-12-05T17:01:27.954Z,6.75
2022-12-05T17:04:31.538Z,6.76
2022-12-05T17:07:34.570Z,6.74
2022-12-05T17:10:37.184Z,6.70
2022-12-05T17:13:40.421Z,6.73
2022-12-05T17:16:43.709Z,6.72
2022-12-05T17:19:46.858Z,6.74
2022-12-05T17:22:49.416Z,6.74
2022-12-05T17:25:57.384Z,6.72
2022-12-05T17:28:59.889Z,6.70
2022-12-05T17:32:03.467Z,6.69
2022-12-05T17:35:28.263Z,6.71
2022-12-05T17:38:31.231Z,6.70
2022-12-05T17:41:33.744Z,6.64
2022-12-05T17:44:36.911Z,6.65
2022-12-05T17:47:40.187Z,6.57
2022-12-05T17:50:49.508Z,6.66
2022-12-05T17:53:53.030Z,6.59
2022-12-05T17:56:55.798Z,6.56
2022-12-05T17:59:58.374Z,6.61
2022-12-05T18:03:01.413Z,6.78
2022-12-05T18:06:05.169Z,6.71
2022-12-05T18:09:07.877Z,6.69
2022-12-05T18:12:11.395Z,6.79
2022-12-05T18:15:14.899Z,6.80
2022-12-05T18:18:18.395Z,6.71
2022-12-05T18:21:20.924Z,6.71
2022-12-05T18:24:26.185Z,6.73
2022-12-05T18:27:29.733Z,6.75
2022-12-05T18:30:33.196Z,6.78
2022-12-05T18:33:35.921Z,6.82
2022-12-05T18:36:38.959Z,6.75
2022-12-05T18:39:41.545Z,6.78
2022-12-05T18:42:44.378Z,6.77
2022-12-05T18:45:55.191Z,6.85
2022-12-05T18:49:03.143Z,6.77
2022-12-05T18:52:06.147Z,6.85
2022-12-05T18:55:17.119Z,6.80
2022-12-05T18:58:20.045Z,6.72
2022-12-05T19:01:23.828Z,6.75
2022-12-05T19:04:28.797Z,6.68
2022-12-05T19:07:31.826Z,6.67
2022-12-05T19:10:42.584Z,6.72
2022-12-05T19:13:47.352Z,6.68
2022-12-05T19:16:58.411Z,6.68
2022-12-05T19:20:04.227Z,6.71
2022-12-05T19:23:07.012Z,6.68
2022-12-05T19:26:10.159Z,6.63
2022-12-05T19:29:14.163Z,6.62
2022-12-05T19:32:17.067Z,6.53
2022-12-05T19:35:19.513Z,6.63
2022-12-05T19:38:22.321Z,6.57
2022-12-05T19:41:29.387Z,6.53
2022-12-05T19:44:32.224Z,6.51
2022-12-05T19:47:35.133Z,6.48
2022-12-05T19:50:40.231Z,6.52
2022-12-05T19:53:44.104Z,6.47
2022-12-05T19:56:47.003Z,6.49
2022-12-05T19:59:49.711Z,6.46
2022-12-05T20:02:52.526Z,6.57
2022-12-05T20:05:59.232Z,6.64
2022-12-05T20:09:03.413Z,6.67
2022-12-05T20:12:06.519Z,6.55
2022-12-05T20:15:10.464Z,6.51
2022-12-05T20:18:16.234Z,6.50
2022-12-05T20:21:23.078Z,6.44
2022-12-05T20:24:26.146Z,6.44
2022-12-05T20:27:28.685Z,6.45
2022-12-05T20:30:32.772Z,6.40
2022-12-05T20:33:36.420Z,6.40
2022-12-05T20:36:43.697Z,6.39
2022-12-05T20:39:46.255Z,6.41
2022-12-05T20:42:49.820Z,6.40
2022-12-05T20:45:52.510Z,6.42
2022-12-05T20:48:56.499Z,6.38
2022-12-05T20:51:58.993Z,6.39
2022-12-05T20:55:01.747Z,6.48
2022-12-05T20:58:05.361Z,6.59
2022-12-05T21:01:12.321Z,6.54
2022-12-05T21:04:14.838Z,6.51
2022-12-05T21:07:17.577Z,6.58
2022-12-05T21:10:28.343Z,6.55
2022-12-05T21:13:31.899Z,6.56
2022-12-05T21:16:34.479Z,6.50
2022-12-05T21:19:37.279Z,6.44
2022-12-05T21:22:40.180Z,6.43
2022-12-05T21:25:43.151Z,6.52
2022-12-05T21:28:46.390Z,6.57
2022-12-05T21:31:50.782Z,6.52
2022-12-05T21:34:53.997Z,6.57
2022-12-05T21:37:56.866Z,6.54
2022-12-05T21:41:04.433Z,6.52
2022-12-05T21:44:07.494Z,6.61
2022-12-05T21:47:09.909Z,6.56
2022-12-05T21:50:14.475Z,6.52
2022-12-05T21:53:19.004Z,6.55
2022-12-05T21:56:23.436Z,6.45
2022-12-05T21:59:27.095Z,6.37
2022-12-05T22:02:29.900Z,6.35
2022-12-05T22:05:36.010Z,6.33
2022-12-05T22:08:39.290Z,6.27
2022-12-05T22:11:43.087Z,6.35
2022-12-05T22:14:45.612Z,6.34
2022-12-05T22:17:48.427Z,6.32
2022-12-05T22:21:03.918Z,6.27
2022-12-05T22:24:06.774Z,6.29
2022-12-05T22:27:09.224Z,6.35
2022-12-05T22:30:12.487Z,6.35
2022-12-05T22:33:15.841Z,6.31
2022-12-05T22:36:19.837Z,6.28
2022-12-05T22:39:22.416Z,6.30
2022-12-05T22:42:26.460Z,6.32
2022-12-05T22:45:28.901Z,6.29
2022-12-05T22:48:32.835Z,6.36
2022-12-05T22:51:35.544Z,6.31
2022-12-05T22:54:38.352Z,6.40
2022-12-05T22:57:40.697Z,6.41
2022-12-05T23:00:45.162Z,6.36
2022-12-05T23:03:50.257Z,6.32
2022-12-05T23:06:53.223Z,6.32
2022-12-05T23:09:56.132Z,6.23
2022-12-05T23:13:00.362Z,6.23
2022-12-05T23:16:11.541Z,6.18
2022-12-05T23:19:14.231Z,6.30
2022-12-05T23:22:16.569Z,6.29
2022-12-05T23:25:19.177Z,6.27
2022-12-05T23:28:21.546Z,6.31
2022-12-05T23:31:24.402Z,6.35
2022-12-05T23:34:26.867Z,6.35
2022-12-05T23:37:29.614Z,6.30
2022-12-05T23:40:32.058Z,6.23
2022-12-05T23:43:36.023Z,6.22
2022-12-05T23:46:38.458Z,6.21
2022-12-05T23:49:41.069Z,6.12
2022-12-05T23:52:43.524Z,6.15
2022-12-05T23:55:46.271Z,6.03
2022-12-05T23:58:49.034Z,6.01
